Time;durP1;ratioP1;P1;durP2;ratioP2;P2;SDS_P1;SDS_P2;PMS_P1;PMS_P2;Temp;Humidity;BMP_temperature;BMP_pressure;BME280_temperature;BME280_humidity;BME280_pressure;Samples;Min_cycle;Max_cycle;Signal;HPM_P1;HPM_P2
2024/01/25 00:01:45;;;;;;;0.70;0.70;;;;;;;8.32;75.71;99680.53;5093605;28;20036;-91
2024/01/25 00:04:11;;;;;;;0.70;0.70;;;;;;;8.43;75.08;99668.75;5094094;28;20029;-93
2024/01/25 00:06:36;;;;;;;0.70;0.70;;;;;;;8.46;74.95;99666.25;5092347;28;20035;-92
2024/01/25 00:09:04;;;;;;;0.70;0.70;;;;;;;8.50;74.48;99669.97;5104591;28;20045;-91
2024/01/25 00:11:31;;;;;;;0.80;0.80;;;;;;;8.39;75.03;99669.44;5076845;28;20039;-93
2024/01/25 00:13:58;;;;;;;0.70;0.70;;;;;;;8.37;75.41;99665.75;5102398;28;20058;-90
2024/01/25 00:16:23;;;;;;;0.80;0.80;;;;;;;8.41;75.01;99672.16;5084629;28;20025;-94
2024/01/25 00:18:49;;;;;;;0.70;0.70;;;;;;;8.45;74.82;99669.75;5084414;28;20315;-92
2024/01/25 00:21:14;;;;;;;0.70;0.70;;;;;;;8.30;75.61;99671.56;5076081;28;20048;-94
2024/01/25 00:23:40;;;;;;;0.70;0.70;;;;;;;8.42;74.86;99663.34;5074607;28;20044;-93
2024/01/25 00:26:06;;;;;;;0.70;0.70;;;;;;;8.26;75.23;99650.97;5075829;28;20040;-93
2024/01/25 00:28:33;;;;;;;0.68;0.68;;;;;;;8.30;75.34;99654.69;5072171;28;20036;-93
2024/01/25 00:31:00;;;;;;;0.73;0.73;;;;;;;8.29;75.53;99663.47;5072051;28;20039;-90
2024/01/25 00:33:26;;;;;;;0.70;0.70;;;;;;;8.33;75.28;99661.06;5057140;28;20420;-93
2024/01/25 00:35:52;;;;;;;0.70;0.70;;;;;;;8.41;74.90;99661.53;5040998;28;20044;-95
2024/01/25 00:38:18;;;;;;;0.77;0.77;;;;;;;8.36;74.83;99668.31;5075153;28;20111;-94
2024/01/25 00:40:45;;;;;;;0.80;0.80;;;;;;;8.42;74.99;99658.03;5085125;28;20067;-94
2024/01/25 00:43:11;;;;;;;0.80;0.80;;;;;;;8.43;74.98;99665.16;5078430;28;20056;-93
2024/01/25 00:45:37;;;;;;;0.70;0.70;;;;;;;8.47;74.85;99657.41;5059523;28;20773;-93
2024/01/25 00:48:03;;;;;;;0.80;0.80;;;;;;;8.47;74.88;99654.75;5095551;28;20040;-93
2024/01/25 00:50:29;;;;;;;0.70;0.70;;;;;;;8.54;74.87;99645.38;5087349;28;20475;-93
2024/01/25 00:52:54;;;;;;;0.70;0.70;;;;;;;8.54;74.78;99647.13;5074000;28;20040;-95
2024/01/25 00:55:20;;;;;;;0.70;0.70;;;;;;;8.56;74.84;99645.44;5079202;28;20040;-93
2024/01/25 00:57:46;;;;;;;0.70;0.70;;;;;;;8.46;75.34;99644.97;5072520;28;20521;-94
2024/01/25 01:00:13;;;;;;;0.60;0.60;;;;;;;8.49;75.04;99638.91;5070483;28;20528;-95
2024/01/25 01:02:41;;;;;;;0.60;0.60;;;;;;;8.36;75.97;99639.06;5056799;28;20040;-93
2024/01/25 01:05:06;;;;;;;;;;;;;;;8.34;75.57;99638.09;5063894;28;20036;-93
2024/01/25 01:07:33;;;;;;;0.70;0.70;;;;;;;8.31;76.30;99638.81;5084394;28;19910;-93
2024/01/25 01:09:59;;;;;;;0.77;0.77;;;;;;;8.26;76.62;99640.31;5075865;28;20028;-94
2024/01/25 01:12:24;;;;;;;0.70;0.70;;;;;;;8.37;76.14;99641.81;5071675;28;20029;-91
2024/01/25 01:14:51;;;;;;;0.70;0.70;;;;;;;8.39;76.08;99641.94;5068224;28;20042;-93
2024/01/25 01:17:18;;;;;;;0.70;0.70;;;;;;;8.48;75.54;99642.41;5096365;28;20449;-92
2024/01/25 01:19:45;;;;;;;0.70;0.70;;;;;;;8.48;75.56;99638.00;5077957;28;20041;-93
2024/01/25 01:22:11;;;;;;;0.70;0.70;;;;;;;8.48;75.41;99645.97;5079695;28;20030;-91
2024/01/25 01:24:36;;;;;;;0.70;0.70;;;;;;;8.40;76.09;99642.00;5078681;28;20048;-92
2024/01/25 01:27:02;;;;;;;0.70;0.70;;;;;;;8.42;75.68;99642.06;5079844;28;20051;-94
2024/01/25 01:29:27;;;;;;;0.70;0.70;;;;;;;8.43;75.83;99644.81;5080557;28;20440;-93
2024/01/25 01:31:53;;;;;;;0.70;0.70;;;;;;;8.56;75.22;99648.09;5051494;28;20041;-92
2024/01/25 01:34:18;;;;;;;0.70;0.70;;;;;;;8.55;74.98;99648.94;5052131;28;20037;-92
2024/01/25 01:36:44;;;;;;;0.70;0.70;;;;;;;8.52;75.29;99648.78;5058952;28;20101;-92
2024/01/25 01:39:10;;;;;;;0.70;0.70;;;;;;;8.63;74.85;99652.91;5074607;28;20127;-92
2024/01/25 01:41:35;;;;;;;0.70;0.70;;;;;;;8.62;74.57;99651.06;5079480;28;20418;-93
2024/01/25 01:44:01;;;;;;;0.70;0.70;;;;;;;8.66;74.78;99653.06;5063196;28;20036;-93
2024/01/25 01:46:39;;;;;;;0.70;0.70;;;;;;;8.74;74.07;99649.06;5070380;28;20132;-95
2024/01/25 01:49:06;;;;;;;0.70;0.70;;;;;;;8.69;74.20;99659.47;5055234;28;20025;-93
2024/01/25 01:51:32;;;;;;;0.77;0.77;;;;;;;8.70;74.08;99655.97;5069202;28;20043;-93
2024/01/25 01:54:00;;;;;;;0.70;0.70;;;;;;;8.79;73.87;99660.84;5062790;28;20028;-92
2024/01/25 01:56:28;;;;;;;0.70;0.70;;;;;;;8.74;73.98;99657.03;5067278;28;20479;-93
2024/01/25 01:59:01;;;;;;;0.70;0.70;;;;;;;8.83;73.92;99640.63;5080012;28;20036;-93
2024/01/25 02:01:27;;;;;;;0.60;0.60;;;;;;;8.82;74.16;99647.72;5072892;28;20072;-93
2024/01/25 02:03:53;;;;;;;0.70;0.70;;;;;;;8.80;74.31;99651.09;5053980;28;20436;-93
2024/01/25 02:06:19;;;;;;;0.70;0.70;;;;;;;8.79;74.22;99650.19;5060774;28;20526;-93
2024/01/25 02:08:47;;;;;;;0.80;0.80;;;;;;;8.71;74.85;99648.88;5072062;28;20438;-94
2024/01/25 02:11:12;;;;;;;;;;;;;;;8.78;74.04;99650.13;5039262;28;20045;-92
2024/01/25 02:13:38;;;;;;;0.77;0.77;;;;;;;8.80;74.11;99648.44;5070622;28;19917;-92
2024/01/25 02:16:05;;;;;;;0.70;0.70;;;;;;;8.76;74.44;99647.38;5072358;28;20036;-94
2024/01/25 02:18:30;;;;;;;0.80;0.80;;;;;;;8.72;74.68;99637.44;5075230;28;20500;-93
2024/01/25 02:20:57;;;;;;;0.70;0.70;;;;;;;8.77;74.05;99641.25;5077926;28;20049;-92
2024/01/25 02:23:23;;;;;;;0.80;0.80;;;;;;;8.79;73.95;99639.56;5049909;28;20033;-91
2024/01/25 02:25:48;;;;;;;0.70;0.70;;;;;;;8.81;73.52;99645.84;5072369;28;20123;-93
2024/01/25 02:28:14;;;;;;;0.70;0.70;;;;;;;8.86;73.37;99643.44;5071422;28;20181;-92
2024/01/25 02:30:39;;;;;;;0.70;0.70;;;;;;;8.81;73.45;99644.94;5072057;28;20067;-94
2024/01/25 02:33:05;;;;;;;0.60;0.60;;;;;;;8.78;73.48;99643.06;5080214;28;20077;-91
2024/01/25 02:35:30;;;;;;;0.70;0.70;;;;;;;8.78;73.61;99650.13;5073237;28;20040;-93
2024/01/25 02:37:56;;;;;;;0.70;0.70;;;;;;;8.70;73.71;99644.41;5072947;28;20194;-93
2024/01/25 02:40:21;;;;;;;0.80;0.80;;;;;;;8.76;72.95;99652.69;5052081;28;20090;-92
2024/01/25 02:42:47;;;;;;;0.70;0.70;;;;;;;8.78;72.88;99659.03;5073490;28;20090;-94
2024/01/25 02:45:12;;;;;;;0.70;0.70;;;;;;;8.77;73.23;99651.88;5067772;28;20036;-94
2024/01/25 02:47:38;;;;;;;0.70;0.70;;;;;;;8.76;73.22;99655.34;5067444;28;20086;-93
2024/01/25 02:50:04;;;;;;;0.70;0.70;;;;;;;8.74;72.60;99652.63;5074848;28;20476;-91
2024/01/25 02:52:30;;;;;;;0.70;0.70;;;;;;;8.71;72.73;99657.78;5069302;28;20418;-94
2024/01/25 02:54:55;;;;;;;0.70;0.70;;;;;;;8.72;72.52;99653.41;5075895;28;20082;-93
2024/01/25 02:57:21;;;;;;;0.70;0.70;;;;;;;8.74;72.47;99649.97;5069158;28;20029;-94
2024/01/25 02:59:47;;;;;;;0.60;0.60;;;;;;;8.72;72.41;99650.75;5073602;28;20042;-92
2024/01/25 03:02:12;;;;;;;0.70;0.70;;;;;;;8.70;72.14;99649.72;5071649;28;20095;-94
2024/01/25 03:04:39;;;;;;;0.70;0.70;;;;;;;8.69;72.66;99642.59;5072179;28;20115;-93
2024/01/25 03:07:07;;;;;;;0.70;0.70;;;;;;;8.67;72.67;99645.19;5049905;28;20013;-95
2024/01/25 03:09:32;;;;;;;0.70;0.70;;;;;;;8.65;72.91;99651.25;5054073;28;20071;-94
2024/01/25 03:11:58;;;;;;;0.70;0.70;;;;;;;8.66;72.41;99655.72;5055564;28;20040;-92
2024/01/25 03:14:23;;;;;;;0.70;0.70;;;;;;;8.62;72.96;99651.06;5068502;28;20758;-93
2024/01/25 03:16:49;;;;;;;0.70;0.70;;;;;;;8.68;72.35;99647.00;5072565;28;20041;-94
2024/01/25 03:19:14;;;;;;;0.70;0.70;;;;;;;8.62;72.47;99649.31;5067283;28;20772;-93
2024/01/25 03:21:40;;;;;;;0.70;0.70;;;;;;;8.52;72.89;99635.47;5069566;28;20280;-94
2024/01/25 03:24:07;;;;;;;0.70;0.70;;;;;;;8.45;73.29;99651.13;5074583;28;20040;-96
2024/01/25 03:26:32;;;;;;;0.70;0.70;;;;;;;8.50;72.77;99650.47;5074778;28;20024;-93
2024/01/25 03:28:58;;;;;;;0.70;0.70;;;;;;;8.50;72.57;99645.13;5073428;28;20060;-94
2024/01/25 03:31:24;;;;;;;0.70;0.70;;;;;;;8.47;72.72;99652.09;5067672;28;20123;-94
2024/01/25 03:33:51;;;;;;;0.70;0.70;;;;;;;8.41;73.10;99656.19;5062723;28;20055;-90
2024/01/25 03:36:17;;;;;;;0.70;0.70;;;;;;;8.40;73.49;99660.59;5074930;28;20032;-92
2024/01/25 03:38:43;;;;;;;0.70;0.70;;;;;;;8.41;73.14;99662.44;5050638;28;20051;-94
2024/01/25 03:41:09;;;;;;;0.70;0.70;;;;;;;8.43;72.99;99663.44;5070374;28;20578;-94
2024/01/25 03:43:35;;;;;;;0.73;0.73;;;;;;;8.50;72.87;99672.63;5074270;28;20086;-94
2024/01/25 03:46:01;;;;;;;0.70;0.70;;;;;;;8.45;72.87;99675.06;5057396;28;20429;-92
2024/01/25 03:48:27;;;;;;;0.70;0.70;;;;;;;8.44;72.96;99675.00;5076772;28;20049;-94
2024/01/25 03:50:56;;;;;;;0.70;0.70;;;;;;;8.41;73.12;99677.47;5073159;28;20047;-94
2024/01/25 03:53:24;;;;;;;0.70;0.70;;;;;;;8.40;72.79;99681.88;5075102;28;20029;-95
2024/01/25 03:55:51;;;;;;;0.70;0.70;;;;;;;8.40;72.92;99679.22;5072060;28;20025;-93
2024/01/25 03:58:18;;;;;;;0.80;0.80;;;;;;;8.34;73.26;99685.94;5056232;28;20064;-93
2024/01/25 04:00:44;;;;;;;0.80;0.80;;;;;;;8.34;73.59;99691.25;5077234;28;20060;-93
2024/01/25 04:03:10;;;;;;;0.70;0.70;;;;;;;8.41;73.36;99685.44;5073324;28;20398;-93
2024/01/25 04:05:36;;;;;;;0.70;0.70;;;;;;;8.32;73.35;99699.13;5079187;28;20032;-93
2024/01/25 04:08:03;;;;;;;0.80;0.80;;;;;;;8.37;73.21;99691.44;5060784;28;20041;-92
2024/01/25 04:10:30;;;;;;;0.70;0.70;;;;;;;8.25;73.34;99701.41;5063662;28;20098;-91
2024/01/25 04:12:55;;;;;;;0.70;0.70;;;;;;;8.35;73.27;99695.75;5073089;28;20040;-91
2024/01/25 04:15:23;;;;;;;0.80;0.80;;;;;;;8.27;73.44;99703.28;5087530;28;20039;-93
2024/01/25 04:17:50;;;;;;;0.70;0.70;;;;;;;8.25;73.28;99701.41;5094786;28;20037;-92
2024/01/25 04:20:15;;;;;;;0.80;0.80;;;;;;;8.30;73.48;99706.13;5047440;28;20116;-91
2024/01/25 04:22:41;;;;;;;0.73;0.73;;;;;;;8.25;73.44;99717.34;5084743;28;20076;-91
2024/01/25 04:25:07;;;;;;;0.70;0.70;;;;;;;8.32;72.88;99722.16;5084982;28;20410;-92
2024/01/25 04:27:32;;;;;;;0.70;0.70;;;;;;;8.28;72.97;99721.06;5070500;28;20024;-92
2024/01/25 04:29:58;;;;;;;0.70;0.70;;;;;;;8.19;73.64;99724.16;5078745;28;20363;-89
2024/01/25 04:32:23;;;;;;;0.70;0.70;;;;;;;8.15;73.97;99721.25;5071853;28;20044;-93
2024/01/25 04:34:49;;;;;;;0.70;0.70;;;;;;;8.19;73.50;99723.22;5102801;28;20021;-90
2024/01/25 04:37:14;;;;;;;0.70;0.70;;;;;;;8.18;73.37;99717.00;5089351;28;20041;-91
2024/01/25 04:39:41;;;;;;;0.77;0.77;;;;;;;8.18;73.54;99718.75;5081366;28;20035;-91
2024/01/25 04:42:07;;;;;;;;;;;;;;;8.04;73.72;99725.03;5093689;28;20028;-92
2024/01/25 04:44:33;;;;;;;0.80;0.80;;;;;;;8.05;73.46;99724.22;5092240;28;19931;-94
2024/01/25 04:47:00;;;;;;;0.70;0.70;;;;;;;8.09;73.42;99721.81;5090288;28;20059;-92
2024/01/25 04:49:25;;;;;;;0.80;0.80;;;;;;;8.01;73.92;99724.91;5072674;28;20044;-93
2024/01/25 04:51:51;;;;;;;0.80;0.80;;;;;;;8.06;73.83;99723.41;5086396;28;20051;-94
2024/01/25 04:54:17;;;;;;;0.70;0.70;;;;;;;8.09;73.42;99723.56;5084463;28;20032;-94
2024/01/25 04:56:43;;;;;;;0.70;0.70;;;;;;;8.10;73.75;99728.97;5062909;28;20021;-92
2024/01/25 04:59:09;;;;;;;0.80;0.80;;;;;;;8.08;73.67;99727.97;5062753;28;20044;-93
2024/01/25 05:01:34;;;;;;;0.80;0.80;;;;;;;7.93;74.12;99737.75;5081845;28;20037;-94
2024/01/25 05:04:00;;;;;;;0.70;0.70;;;;;;;7.88;74.24;99747.22;5061772;28;20043;-94
2024/01/25 05:06:25;;;;;;;0.80;0.80;;;;;;;7.71;75.06;99759.53;5070198;28;20087;-94
2024/01/25 05:08:51;;;;;;;0.80;0.80;;;;;;;7.80;74.53;99764.44;5062611;28;20046;-91
2024/01/25 05:11:17;;;;;;;0.75;0.75;;;;;;;7.86;74.42;99757.75;5078685;28;20039;-92
2024/01/25 05:13:43;;;;;;;0.70;0.70;;;;;;;7.84;74.54;99758.47;5063285;28;20088;-92
2024/01/25 05:16:08;;;;;;;0.75;0.75;;;;;;;7.87;74.10;99767.56;5080229;28;20041;-93
2024/01/25 05:18:34;;;;;;;0.70;0.70;;;;;;;7.81;74.60;99761.91;5094899;28;20051;-92
2024/01/25 05:20:59;;;;;;;0.70;0.70;;;;;;;7.73;74.79;99768.50;5063539;28;20024;-93
2024/01/25 05:23:26;;;;;;;0.80;0.80;;;;;;;7.85;74.24;99771.84;5079116;28;20054;-91
2024/01/25 05:25:54;;;;;;;0.75;0.75;;;;;;;7.76;74.64;99771.34;5057811;28;20033;-93
2024/01/25 05:28:19;;;;;;;0.75;0.75;;;;;;;7.82;74.31;99776.09;5049734;28;20044;-93
2024/01/25 05:30:45;;;;;;;0.80;0.80;;;;;;;7.89;74.00;99771.19;5078066;28;20033;-95
2024/01/25 05:33:10;;;;;;;0.70;0.70;;;;;;;7.92;74.09;99775.78;5068860;28;20032;-93
2024/01/25 05:35:37;;;;;;;0.70;0.70;;;;;;;7.89;73.93;99771.19;5060257;28;20041;-94
2024/01/25 05:38:02;;;;;;;0.80;0.80;;;;;;;7.82;74.37;99782.31;5053943;28;20040;-92
2024/01/25 05:40:28;;;;;;;0.80;0.80;;;;;;;7.76;74.32;99783.69;5083812;28;20040;-94
2024/01/25 05:42:55;;;;;;;0.77;0.77;;;;;;;7.85;74.41;99786.88;5061017;28;20048;-95
2024/01/25 05:45:21;;;;;;;0.90;0.90;;;;;;;7.79;74.47;99783.88;5049145;28;20028;-93
2024/01/25 05:47:48;;;;;;;0.80;0.80;;;;;;;7.87;74.08;99788.81;5071877;28;20067;-93
2024/01/25 05:50:15;;;;;;;0.80;0.80;;;;;;;7.85;74.20;99787.78;5050370;28;20037;-94
2024/01/25 05:52:41;;;;;;;0.80;0.80;;;;;;;7.82;74.18;99784.97;5074307;28;20483;-93
2024/01/25 05:55:07;;;;;;;0.80;0.80;;;;;;;7.76;74.29;99795.25;5070388;28;20040;-93
2024/01/25 05:57:35;;;;;;;0.80;0.80;;;;;;;7.75;74.19;99790.75;5060889;28;20031;-92
2024/01/25 06:00:01;;;;;;;0.70;0.70;;;;;;;7.73;74.55;99797.72;5068571;28;20025;-92
2024/01/25 06:02:33;;;;;;;0.80;0.80;;;;;;;7.78;74.14;99792.69;5064588;28;20032;-91
2024/01/25 06:04:59;;;;;;;0.70;0.70;;;;;;;7.83;74.89;99796.50;5071007;28;20048;-92
2024/01/25 06:07:27;;;;;;;0.80;0.80;;;;;;;7.71;74.80;99794.06;5075806;28;20103;-93
2024/01/25 06:09:53;;;;;;;0.70;0.70;;;;;;;7.53;75.18;99793.03;5041075;28;20413;-93
2024/01/25 06:12:19;;;;;;;0.80;0.80;;;;;;;7.44;75.31;99786.34;5055655;28;20040;-93
2024/01/25 06:14:44;;;;;;;0.80;0.80;;;;;;;7.51;74.53;99781.38;5071293;28;20036;-92
2024/01/25 06:17:10;;;;;;;0.70;0.70;;;;;;;7.49;74.93;99783.03;5072793;28;20025;-92
2024/01/25 06:19:37;;;;;;;0.70;0.70;;;;;;;7.36;75.07;99787.63;5081100;28;20524;-92
2024/01/25 06:22:03;;;;;;;0.70;0.70;;;;;;;7.32;75.08;99780.28;5079823;28;20070;-92
2024/01/25 06:24:28;;;;;;;0.70;0.70;;;;;;;7.33;75.02;99792.78;5072818;28;20485;-93
2024/01/25 06:26:54;;;;;;;0.70;0.70;;;;;;;7.27;75.08;99789.72;5074800;28;20009;-91
2024/01/25 06:29:19;;;;;;;0.70;0.70;;;;;;;7.40;74.56;99794.94;5067987;28;20075;-91
2024/01/25 06:31:47;;;;;;;0.70;0.70;;;;;;;7.41;74.55;99791.47;5099351;28;20025;-92
2024/01/25 06:34:12;;;;;;;0.88;0.88;;;;;;;7.29;75.04;99798.72;5090998;28;20088;-92
2024/01/25 06:36:38;;;;;;;0.70;0.70;;;;;;;7.20;75.01;99811.44;5064307;28;20036;-92
2024/01/25 06:39:07;;;;;;;0.70;0.70;;;;;;;6.88;75.94;99813.06;5070978;28;20442;-92
2024/01/25 06:41:33;;;;;;;0.70;0.70;;;;;;;6.93;76.29;99813.34;5076167;28;20035;-95
2024/01/25 06:43:59;;;;;;;0.80;0.80;;;;;;;6.82;76.47;99825.97;5075913;28;20042;-94
2024/01/25 06:46:25;;;;;;;0.70;0.70;;;;;;;6.81;76.54;99825.88;5076003;28;20991;-93
2024/01/25 06:48:51;;;;;;;0.70;0.70;;;;;;;6.91;76.15;99834.47;5074788;28;20031;-91
2024/01/25 06:51:17;;;;;;;0.70;0.70;;;;;;;6.92;76.71;99823.03;5069980;28;20033;-90
2024/01/25 06:53:42;;;;;;;0.70;0.70;;;;;;;7.05;76.18;99824.72;5070663;28;20028;-92
2024/01/25 06:56:08;;;;;;;0.77;0.77;;;;;;;7.24;75.74;99823.16;5074587;28;20025;-93
2024/01/25 06:58:33;;;;;;;0.73;0.73;;;;;;;7.26;75.34;99822.41;5058273;28;20177;-92
2024/01/25 07:00:59;;;;;;;0.70;0.70;;;;;;;7.30;74.83;99828.84;5038179;28;20033;-93
2024/01/25 07:03:24;;;;;;;0.75;0.75;;;;;;;7.24;75.09;99833.78;5058037;28;20059;-92
2024/01/25 07:05:50;;;;;;;0.80;0.80;;;;;;;7.13;75.36;99827.81;5050875;28;20040;-91
2024/01/25 07:08:15;;;;;;;0.80;0.80;;;;;;;7.10;75.41;99825.00;5069501;28;20802;-92
2024/01/25 07:10:44;;;;;;;0.80;0.80;;;;;;;7.11;75.59;99825.06;5074366;28;20062;-90
2024/01/25 07:13:11;;;;;;;0.80;0.80;;;;;;;7.09;75.38;99831.09;5073602;28;20041;-94
2024/01/25 07:15:36;;;;;;;0.80;0.80;;;;;;;7.19;75.44;99837.06;5058757;28;20036;-93
2024/01/25 07:18:05;;;;;;;0.80;0.80;;;;;;;7.15;75.30;99826.19;5047007;28;20033;-92
2024/01/25 07:20:31;;;;;;;0.80;0.80;;;;;;;7.13;75.17;99833.13;5062180;28;20048;-93
2024/01/25 07:22:58;;;;;;;0.90;0.90;;;;;;;7.07;75.16;99838.06;5077554;28;20090;-93
2024/01/25 07:25:23;;;;;;;0.80;0.80;;;;;;;6.87;75.83;99836.84;5054485;28;20505;-92
2024/01/25 07:27:50;;;;;;;0.80;0.80;;;;;;;6.60;77.23;99839.63;5082585;28;20044;-92
2024/01/25 07:30:18;;;;;;;0.80;0.80;;;;;;;6.51;77.70;99848.72;5066866;28;20044;-92
2024/01/25 07:32:45;;;;;;;0.90;0.90;;;;;;;6.57;78.08;99851.78;5052259;28;20029;-92
2024/01/25 07:35:11;;;;;;;;;;;;;;;6.71;77.61;99849.97;5079047;28;20706;-93
2024/01/25 07:37:38;;;;;;;0.85;0.85;;;;;;;6.84;77.28;99852.56;5070531;28;19924;-93
2024/01/25 07:40:04;;;;;;;0.90;0.90;;;;;;;6.84;77.13;99850.81;5076927;28;20024;-92
2024/01/25 07:42:30;;;;;;;0.80;0.80;;;;;;;6.87;76.93;99842.16;5081163;28;20033;-93
2024/01/25 07:44:55;;;;;;;0.77;0.77;;;;;;;6.82;77.29;99846.25;5072882;28;20040;-91
2024/01/25 07:47:20;;;;;;;0.80;0.80;;;;;;;6.93;76.82;99848.75;5071643;28;20033;-91
2024/01/25 07:49:46;;;;;;;0.80;0.80;;;;;;;7.07;76.04;99848.69;5067922;28;20132;-92
2024/01/25 07:52:11;;;;;;;0.80;0.80;;;;;;;7.04;76.09;99857.38;5046020;28;20041;-92
2024/01/25 07:54:37;;;;;;;0.80;0.80;;;;;;;7.00;76.50;99859.75;5064778;28;20040;-92
2024/01/25 07:57:03;;;;;;;0.85;0.85;;;;;;;7.15;75.75;99852.72;5068862;28;20071;-92
2024/01/25 07:59:28;;;;;;;0.80;0.80;;;;;;;7.18;75.67;99851.13;5070311;28;20028;-92
2024/01/25 08:01:56;;;;;;;0.90;0.90;;;;;;;7.26;75.50;99843.66;5068871;28;20112;-94
2024/01/25 08:04:22;;;;;;;0.80;0.80;;;;;;;7.37;75.11;99841.63;5058904;28;20494;-92
2024/01/25 08:06:47;;;;;;;0.80;0.80;;;;;;;7.48;74.82;99851.16;5071303;28;20036;-92
2024/01/25 08:09:13;;;;;;;0.80;0.80;;;;;;;7.50;74.69;99848.59;5063295;28;20768;-93
2024/01/25 08:11:39;;;;;;;0.80;0.80;;;;;;;7.33;75.18;99853.84;5038800;28;20048;-93
2024/01/25 08:14:06;;;;;;;0.90;0.90;;;;;;;7.29;75.41;99854.47;5064277;28;20073;-92
2024/01/25 08:16:34;;;;;;;0.80;0.80;;;;;;;7.47;75.15;99857.28;5070060;28;20040;-92
2024/01/25 08:19:00;;;;;;;0.70;0.70;;;;;;;7.54;74.97;99851.53;5069346;28;20467;-93
2024/01/25 08:21:26;;;;;;;0.77;0.77;;;;;;;7.69;75.06;99854.16;5057294;28;20012;-93
2024/01/25 08:23:51;;;;;;;0.80;0.80;;;;;;;7.92;73.76;99856.41;5068587;28;20098;-92
2024/01/25 08:26:17;;;;;;;0.70;0.70;;;;;;;7.92;73.87;99860.81;5063955;28;20025;-90
2024/01/25 08:28:44;;;;;;;0.70;0.70;;;;;;;8.00;73.33;99859.53;5080861;28;20056;-92
2024/01/25 08:31:10;;;;;;;0.70;0.70;;;;;;;8.16;72.97;99863.97;5056848;28;20040;-91
2024/01/25 08:33:36;;;;;;;0.70;0.70;;;;;;;8.25;72.62;99860.91;5069186;28;20549;-92
2024/01/25 08:36:02;;;;;;;0.77;0.77;;;;;;;8.23;72.77;99866.13;5067264;28;20020;-92
2024/01/25 08:38:27;;;;;;;0.60;0.60;;;;;;;8.37;72.77;99866.94;5080661;28;20033;-93
2024/01/25 08:40:53;;;;;;;0.70;0.70;;;;;;;8.49;72.08;99867.63;5074311;28;20402;-93
2024/01/25 08:43:19;;;;;;;0.80;0.80;;;;;;;8.58;71.58;99876.13;5069509;28;20033;-93
2024/01/25 08:45:44;;;;;;;0.70;0.70;;;;;;;8.64;71.20;99886.19;5061314;28;20033;-92
2024/01/25 08:48:13;;;;;;;0.70;0.70;;;;;;;8.89;70.80;99875.13;5070765;28;20406;-93
2024/01/25 08:50:39;;;;;;;0.70;0.70;;;;;;;8.98;70.67;99883.59;5069510;28;20040;-93
2024/01/25 08:53:05;;;;;;;0.70;0.70;;;;;;;9.02;70.60;99879.38;5072466;28;20040;-93
2024/01/25 08:55:31;;;;;;;0.80;0.80;;;;;;;9.20;70.06;99883.94;5086080;28;20041;-92
2024/01/25 08:57:56;;;;;;;0.70;0.70;;;;;;;9.04;70.64;99891.00;5059792;28;20143;-92
2024/01/25 09:00:22;;;;;;;0.65;0.65;;;;;;;9.18;70.37;99895.31;5084823;28;20194;-91
2024/01/25 09:02:47;;;;;;;0.70;0.70;;;;;;;9.29;70.13;99898.53;5080238;28;20036;-93
2024/01/25 09:05:14;;;;;;;0.70;0.70;;;;;;;9.26;70.61;99907.31;5078466;28;20041;-94
2024/01/25 09:07:40;;;;;;;;;;;;;;;9.29;70.35;99909.19;5075559;28;20017;-93
2024/01/25 09:10:06;;;;;;;0.80;0.80;;;;;;;9.00;71.14;99898.81;5077218;28;19980;-93
2024/01/25 09:12:31;;;;;;;0.70;0.70;;;;;;;9.21;70.90;99903.47;5066182;28;20035;-92
2024/01/25 09:14:57;;;;;;;0.70;0.70;;;;;;;9.11;71.15;99899.41;5073888;28;20013;-92
2024/01/25 09:17:22;;;;;;;0.63;0.63;;;;;;;9.04;71.75;99896.31;5088008;28;20049;-93
2024/01/25 09:19:51;;;;;;;0.70;0.70;;;;;;;9.06;71.27;99911.56;5086184;28;20104;-93
2024/01/25 09:22:19;;;;;;;0.70;0.70;;;;;;;9.37;70.20;99910.53;5066011;28;20090;-93
2024/01/25 09:24:48;;;;;;;0.88;0.88;;;;;;;10.71;66.52;99906.63;5087718;28;20047;-94
2024/01/25 09:27:15;;;;;;;0.73;0.73;;;;;;;11.84;62.98;99894.84;5074023;28;20031;-94
2024/01/25 09:29:42;;;;;;;0.70;0.70;;;;;;;12.38;60.27;99903.34;5057625;28;20048;-93
2024/01/25 09:32:10;;;;;;;0.70;0.70;;;;;;;11.10;63.28;99909.34;5074287;28;20051;-93
2024/01/25 09:34:37;;;;;;;0.70;0.70;;;;;;;11.37;63.15;99911.44;5084236;28;20009;-93
2024/01/25 09:37:04;;;;;;;0.80;0.80;;;;;;;11.73;61.74;99920.16;5089397;28;20029;-93
2024/01/25 09:39:29;;;;;;;0.70;0.70;;;;;;;12.12;59.89;99914.72;5082072;28;20020;-94
2024/01/25 09:41:55;;;;;;;0.60;0.60;;;;;;;11.56;61.90;99919.44;5059630;28;20080;-94
2024/01/25 09:44:22;;;;;;;0.70;0.70;;;;;;;12.08;60.86;99916.38;5061669;28;20029;-93
2024/01/25 09:46:48;;;;;;;0.60;0.60;;;;;;;12.65;58.97;99910.63;5059932;28;20086;-94
2024/01/25 09:49:14;;;;;;;0.60;0.60;;;;;;;13.02;57.56;99915.69;5071785;28;20074;-93
2024/01/25 09:51:43;;;;;;;0.52;0.52;;;;;;;12.57;57.77;99923.75;5060010;28;20486;-93
2024/01/25 09:54:09;;;;;;;0.60;0.60;;;;;;;12.91;56.15;99923.31;5072635;28;20036;-93
2024/01/25 09:56:35;;;;;;;0.60;0.60;;;;;;;12.56;57.26;99927.28;5057137;28;20064;-94
2024/01/25 09:59:03;;;;;;;0.50;0.50;;;;;;;12.67;56.85;99914.31;5067648;28;20078;-94
2024/01/25 10:01:30;;;;;;;0.60;0.60;;;;;;;12.84;56.29;99921.25;5057862;28;20103;-93
2024/01/25 10:03:56;;;;;;;;;;;;;;;13.23;55.45;99921.00;5074347;28;20090;-94
2024/01/25 10:06:24;;;;;;;0.60;0.60;;;;;;;12.82;55.74;99914.91;5073012;28;19955;-95
2024/01/25 10:08:52;;;;;;;0.60;0.60;;;;;;;12.79;56.28;99913.03;5070898;28;20276;-94
2024/01/25 10:11:19;;;;;;;0.68;0.68;;;;;;;13.65;53.98;99905.53;5069978;28;20032;-93
2024/01/25 10:13:46;;;;;;;0.60;0.60;;;;;;;13.57;54.28;99897.25;5066903;28;20052;-93
2024/01/25 10:16:19;;;;;;;0.60;0.60;;;;;;;13.62;54.45;99899.19;5068084;28;20033;-93
2024/01/25 10:18:48;;;;;;;0.50;0.50;;;;;;;12.83;54.74;99906.91;5059718;28;20040;-94
2024/01/25 10:21:16;;;;;;;0.60;0.60;;;;;;;12.55;56.80;99912.97;5071323;28;20032;-94
2024/01/25 10:23:45;;;;;;;0.60;0.60;;;;;;;13.79;54.06;99903.34;5062305;28;20036;-94
2024/01/25 10:26:12;;;;;;;0.60;0.60;;;;;;;13.94;52.53;99908.34;5053590;28;20013;-94
2024/01/25 10:28:38;;;;;;;0.50;0.50;;;;;;;12.84;55.53;99907.88;5062285;28;20044;-94
2024/01/25 10:31:07;;;;;;;0.60;0.60;;;;;;;12.97;55.01;99896.75;5055220;28;20032;-92
2024/01/25 10:33:34;;;;;;;0.70;0.70;;;;;;;13.53;53.40;99889.94;5066471;28;20066;-93
2024/01/25 10:36:03;;;;;;;0.50;0.50;;;;;;;13.01;54.99;99901.38;5081236;28;20290;-93
2024/01/25 10:38:35;;;;;;;0.60;0.60;;;;;;;12.44;56.76;99898.22;5072947;28;20034;-92
2024/01/25 10:41:04;;;;;;;0.60;0.60;;;;;;;12.77;56.05;99903.09;5039743;28;20040;-93
2024/01/25 10:43:32;;;;;;;0.50;0.50;;;;;;;12.10;57.33;99900.38;5045302;28;20499;-94
2024/01/25 10:45:59;;;;;;;0.60;0.60;;;;;;;11.69;58.92;99907.50;5068592;28;20029;-93
2024/01/25 10:48:26;;;;;;;0.65;0.65;;;;;;;11.74;58.54;99897.94;5078191;28;20040;-94
2024/01/25 10:50:53;;;;;;;0.70;0.70;;;;;;;12.25;57.23;99890.31;5068286;28;20032;-91
2024/01/25 10:53:19;;;;;;;;;;;;;;;12.72;54.29;99888.63;5067185;28;20138;-92
2024/01/25 10:55:45;;;;;;;0.60;0.60;;;;;;;11.84;56.44;99891.28;5063850;28;19923;-91
2024/01/25 10:58:15;;;;;;;0.60;0.60;;;;;;;13.39;52.29;99877.81;5048661;28;20060;-91
2024/01/25 11:00:40;;;;;;;0.60;0.60;;;;;;;14.62;49.78;99864.09;5047244;28;20044;-92
2024/01/25 11:03:06;;;;;;;0.60;0.60;;;;;;;14.93;48.97;99852.50;5070255;28;20033;-91
2024/01/25 11:05:32;;;;;;;0.63;0.63;;;;;;;14.52;48.75;99845.88;5060558;28;20043;-92
2024/01/25 11:07:58;;;;;;;0.60;0.60;;;;;;;15.52;46.48;99842.56;5068059;28;20513;-92
2024/01/25 11:10:27;;;;;;;0.60;0.60;;;;;;;15.14;46.69;99839.72;5052760;28;20033;-93
2024/01/25 11:13:00;;;;;;;0.60;0.60;;;;;;;16.29;44.34;99839.13;5066183;28;20056;-93
2024/01/25 11:15:31;;;;;;;0.50;0.50;;;;;;;18.00;40.33;99840.06;5065395;28;20025;-91
2024/01/25 11:17:58;;;;;;;0.40;0.40;;;;;;;18.56;39.88;99834.66;5063835;28;20044;-93
2024/01/25 11:20:25;;;;;;;0.40;0.40;;;;;;;15.17;46.41;99843.34;5062864;28;20035;-91
2024/01/25 11:22:57;;;;;;;;;;;;;;;15.72;46.45;99835.06;5062960;28;20133;-91
2024/01/25 11:25:23;;;;;;;0.50;0.50;;;;;;;16.10;45.03;99832.44;5066140;28;19912;-94
2024/01/25 11:27:51;;;;;;;0.40;0.40;;;;;;;15.29;46.35;99824.88;5070846;28;20092;-93
2024/01/25 11:30:21;;;;;;;0.50;0.50;;;;;;;14.88;48.02;99827.28;5068614;28;20123;-92
2024/01/25 11:32:47;;;;;;;0.50;0.50;;;;;;;15.01;47.56;99829.47;5052938;28;20044;-91
2024/01/25 11:35:16;;;;;;;0.40;0.40;;;;;;;13.21;50.61;99826.16;5074936;28;20064;-91
2024/01/25 11:37:49;;;;;;;0.40;0.40;;;;;;;12.32;54.23;99836.19;5063766;28;20029;-90